createdAt,value
2023-02-09T00:02:12.736Z,-2.33
2023-02-09T00:04:41.957Z,-2.70
2023-02-09T00:07:11.054Z,-2.41
2023-02-09T00:09:40.539Z,-2.30
2023-02-09T00:12:23.756Z,-2.51
2023-02-09T00:14:53.260Z,-2.40
2023-02-09T00:17:24.324Z,-2.48
2023-02-09T00:19:56.021Z,-2.40
2023-02-09T00:22:25.601Z,-2.25
2023-02-09T00:24:56.506Z,-2.23
2023-02-09T00:27:26.671Z,-2.44
2023-02-09T00:29:56.067Z,-2.28
2023-02-09T00:32:27.438Z,-2.33
2023-02-09T00:34:56.781Z,-2.31
2023-02-09T00:37:25.888Z,-2.32
2023-02-09T00:39:55.322Z,-2.46
2023-02-09T00:42:24.962Z,-2.24
2023-02-09T00:44:54.176Z,-2.30
2023-02-09T00:47:23.376Z,-2.25
2023-02-09T00:49:54.487Z,-2.21
2023-02-09T00:52:24.000Z,-2.33
2023-02-09T00:54:53.312Z,-2.13
2023-02-09T00:57:22.886Z,-2.31
2023-02-09T00:59:57.012Z,-2.22
2023-02-09T01:02:26.423Z,-2.17
2023-02-09T01:05:03.129Z,-2.09
2023-02-09T01:07:33.520Z,-2.24
2023-02-09T01:10:02.710Z,-2.15
2023-02-09T01:12:38.846Z,-2.18
2023-02-09T01:15:11.824Z,-2.29
2023-02-09T01:17:41.461Z,-2.25
2023-02-09T01:20:15.724Z,-2.47
2023-02-09T01:22:50.215Z,-2.28
2023-02-09T01:25:19.516Z,-2.36
2023-02-09T01:27:58.267Z,-2.18
2023-02-09T01:30:27.837Z,-2.20
2023-02-09T01:32:57.617Z,-2.17
2023-02-09T01:35:30.409Z,-2.19
2023-02-09T01:38:06.931Z,-2.18
2023-02-09T01:40:37.478Z,-2.36
2023-02-09T01:43:14.114Z,-2.31
2023-02-09T01:45:48.257Z,-2.32
2023-02-09T01:48:18.725Z,-2.47
2023-02-09T01:50:54.165Z,-2.26
2023-02-09T01:53:24.139Z,-2.22
2023-02-09T01:56:00.647Z,-2.20
2023-02-09T01:58:31.658Z,-2.39
2023-02-09T02:01:00.947Z,-2.26
2023-02-09T02:03:31.806Z,-2.30
2023-02-09T02:06:12.963Z,-2.30
2023-02-09T02:11:20.822Z,-2.17
2023-02-09T02:13:50.542Z,-2.21
2023-02-09T02:16:53.444Z,-2.32
2023-02-09T02:19:57.956Z,-2.21
2023-02-09T02:22:55.182Z,-2.13
2023-02-09T02:25:55.061Z,-2.08
2023-02-09T02:28:53.221Z,-2.07
2023-02-09T02:31:56.254Z,-2.25
2023-02-09T02:34:31.543Z,-2.19
2023-02-09T02:37:09.368Z,-2.20
2023-02-09T02:39:47.911Z,-2.15
2023-02-09T02:42:40.352Z,-2.33
2023-02-09T02:45:15.888Z,-2.07
2023-02-09T02:47:56.793Z,-2.09
2023-02-09T02:50:31.225Z,-2.06
2023-02-09T02:55:46.867Z,-2.09
2023-02-09T02:58:18.647Z,-2.13
2023-02-09T03:00:52.190Z,-2.33
2023-02-09T03:03:27.292Z,-2.26
2023-02-09T03:05:57.516Z,-2.24
2023-02-09T03:08:26.628Z,-2.14
2023-02-09T03:10:56.002Z,-2.18
2023-02-09T03:13:49.469Z,-2.09
2023-02-09T03:16:29.497Z,-2.07
2023-02-09T03:19:14.956Z,-2.03
2023-02-09T03:21:53.924Z,-2.01
2023-02-09T03:24:33.542Z,-1.98
2023-02-09T03:27:08.813Z,-2.00
2023-02-09T03:29:39.860Z,-1.97
2023-02-09T03:32:10.577Z,-1.95
2023-02-09T03:34:47.765Z,-1.94
2023-02-09T03:37:17.229Z,-2.42
2023-02-09T03:39:47.563Z,-2.18
2023-02-09T03:42:21.892Z,-2.00
2023-02-09T03:44:51.194Z,-2.13
2023-02-09T03:47:20.319Z,-2.07
2023-02-09T03:49:51.660Z,-2.07
2023-02-09T03:52:20.924Z,-2.07
2023-02-09T03:54:50.129Z,-2.34
2023-02-09T03:57:24.602Z,-1.99
2023-02-09T03:59:53.961Z,-1.99
2023-02-09T04:02:23.113Z,-1.93
2023-02-09T04:04:59.336Z,-1.92
2023-02-09T04:07:28.805Z,-1.96
2023-02-09T04:09:57.911Z,-1.90
2023-02-09T04:12:27.846Z,-2.03
2023-02-09T04:14:56.898Z,-1.85
2023-02-09T04:17:34.039Z,-1.89
2023-02-09T04:20:05.557Z,-1.78
2023-02-09T04:22:34.857Z,-1.80
2023-02-09T04:25:06.640Z,-1.80
2023-02-09T04:27:36.548Z,-1.79
2023-02-09T04:30:06.836Z,-2.16
2023-02-09T04:32:37.784Z,-1.91
2023-02-09T04:35:15.258Z,-1.85
2023-02-09T04:37:44.537Z,-1.86
2023-02-09T04:40:14.213Z,-1.68
2023-02-09T04:42:50.206Z,-1.67
2023-02-09T04:45:19.509Z,-1.63
2023-02-09T04:47:51.443Z,-1.65
2023-02-09T04:50:22.462Z,-1.55
2023-02-09T04:52:51.866Z,-1.72
2023-02-09T04:55:21.025Z,-1.67
2023-02-09T04:58:03.294Z,-1.63
2023-02-09T05:00:32.612Z,-1.67
2023-02-09T05:03:02.058Z,-1.68
2023-02-09T05:05:41.304Z,-1.63
2023-02-09T05:08:10.956Z,-1.55
2023-02-09T05:10:40.212Z,-1.89
2023-02-09T05:13:14.420Z,-1.73
2023-02-09T05:15:49.557Z,-1.62
2023-02-09T05:18:19.115Z,-1.66
2023-02-09T05:20:50.509Z,-1.65
2023-02-09T05:23:20.260Z,-1.64
2023-02-09T05:25:49.705Z,-1.73
2023-02-09T05:28:19.053Z,-1.65
2023-02-09T05:33:42.784Z,-1.64
2023-02-09T05:36:19.333Z,-1.87
2023-02-09T05:38:49.746Z,-1.44
2023-02-09T05:41:31.912Z,-1.54
2023-02-09T05:44:00.715Z,-1.43
2023-02-09T05:46:30.734Z,-1.41
2023-02-09T05:48:59.938Z,-1.56
2023-02-09T05:51:31.278Z,-1.35
2023-02-09T05:54:01.845Z,-1.33
2023-02-09T05:56:31.161Z,-1.30
2023-02-09T05:59:00.436Z,-1.27
2023-02-09T06:01:34.819Z,-1.27
2023-02-09T06:04:04.309Z,-1.37
2023-02-09T06:06:35.509Z,-1.32
2023-02-09T06:09:06.745Z,-1.19
2023-02-09T06:11:36.137Z,-1.19
2023-02-09T06:14:05.643Z,-1.15
2023-02-09T06:16:34.900Z,-1.06
2023-02-09T06:19:04.120Z,-1.01
2023-02-09T06:21:35.423Z,-0.91
2023-02-09T06:24:04.653Z,-0.89
2023-02-09T06:26:38.880Z,-0.95
2023-02-09T06:29:09.274Z,-0.96
2023-02-09T06:31:43.674Z,-1.08
2023-02-09T06:34:13.116Z,-1.17
2023-02-09T06:36:44.955Z,-1.19
2023-02-09T06:39:14.333Z,-1.22
2023-02-09T06:41:43.375Z,-1.30
2023-02-09T06:44:13.249Z,-1.32
2023-02-09T06:46:42.569Z,-1.28
2023-02-09T06:49:11.724Z,-1.25
2023-02-09T06:51:48.152Z,-1.25
2023-02-09T06:54:23.198Z,-1.20
2023-02-09T06:56:52.472Z,-1.08
2023-02-09T06:59:21.795Z,-0.98
2023-02-09T07:01:54.873Z,-0.93
2023-02-09T07:04:29.680Z,-0.87
2023-02-09T07:07:01.041Z,-0.73
2023-02-09T07:09:30.262Z,-0.76
2023-02-09T07:11:59.294Z,-0.56
2023-02-09T07:14:28.848Z,-0.48
2023-02-09T07:16:57.857Z,-0.39
2023-02-09T07:19:27.056Z,-0.39
2023-02-09T07:21:57.668Z,-0.42
2023-02-09T07:24:29.223Z,-0.31
2023-02-09T07:26:58.571Z,-0.28
2023-02-09T07:29:27.730Z,-0.28
2023-02-09T07:31:57.294Z,-0.25
2023-02-09T07:34:26.960Z,-0.29
2023-02-09T07:36:56.126Z,-0.33
2023-02-09T07:39:25.329Z,-0.26
2023-02-09T07:44:49.858Z,-0.44
2023-02-09T07:47:19.145Z,-0.04
2023-02-09T07:49:48.488Z,-0.33
2023-02-09T07:52:17.757Z,-0.07
2023-02-09T07:54:46.978Z,-0.02
2023-02-09T07:57:18.213Z,-0.03
2023-02-09T07:59:48.296Z,0.03
2023-02-09T08:02:26.650Z,0.03
2023-02-09T08:04:59.987Z,0.06
2023-02-09T08:07:29.792Z,-0.10
2023-02-09T08:09:59.050Z,-0.03
2023-02-09T08:12:43.988Z,0.10
2023-02-09T08:15:13.814Z,0.20
2023-02-09T08:17:43.390Z,-0.18
2023-02-09T08:20:23.075Z,0.27
2023-02-09T08:23:06.846Z,0.40
2023-02-09T08:25:37.727Z,0.42
2023-02-09T08:28:09.756Z,0.43
2023-02-09T08:30:39.985Z,0.44
2023-02-09T08:33:15.269Z,0.49
2023-02-09T08:38:20.640Z,0.35
2023-02-09T08:40:49.826Z,0.44
2023-02-09T08:43:26.094Z,0.41
2023-02-09T08:45:55.434Z,0.41
2023-02-09T08:48:33.250Z,0.47
2023-02-09T08:51:03.940Z,0.41
2023-02-09T08:53:33.311Z,0.51
2023-02-09T08:56:02.750Z,0.55
2023-02-09T08:58:34.547Z,0.67
2023-02-09T09:01:09.737Z,0.72
2023-02-09T09:03:39.840Z,0.73
2023-02-09T09:06:13.560Z,0.90
2023-02-09T09:08:43.252Z,0.99
2023-02-09T09:11:14.583Z,1.03
2023-02-09T09:13:50.869Z,1.02
2023-02-09T09:16:22.340Z,1.00
2023-02-09T09:18:57.439Z,0.99
2023-02-09T09:21:26.840Z,1.06
2023-02-09T09:23:56.026Z,1.18
2023-02-09T09:26:25.180Z,1.17
2023-02-09T09:28:57.034Z,1.24
2023-02-09T09:31:26.368Z,1.27
2023-02-09T09:33:56.968Z,1.21
2023-02-09T09:36:32.971Z,1.20
2023-02-09T09:39:07.796Z,1.18
2023-02-09T09:41:38.411Z,1.02
2023-02-09T09:44:17.363Z,1.09
2023-02-09T09:46:50.261Z,1.09
2023-02-09T09:49:27.016Z,1.14
2023-02-09T09:52:00.932Z,1.07
2023-02-09T09:54:33.447Z,1.10
2023-02-09T09:57:20.520Z,1.24
2023-02-09T09:59:52.170Z,1.32
2023-02-09T10:02:35.885Z,1.36
2023-02-09T10:05:19.477Z,1.38
2023-02-09T10:10:40.537Z,1.65
2023-02-09T10:13:16.722Z,1.70
2023-02-09T10:15:50.301Z,1.78
2023-02-09T10:18:25.708Z,1.69
2023-02-09T10:20:56.203Z,1.61
2023-02-09T10:23:33.810Z,1.56
2023-02-09T10:26:26.848Z,1.60
2023-02-09T10:28:59.326Z,1.68
2023-02-09T10:31:43.243Z,1.61
2023-02-09T10:34:17.191Z,1.55
2023-02-09T10:36:51.760Z,1.42
2023-02-09T10:39:28.696Z,1.42
2023-02-09T10:44:57.175Z,1.14
2023-02-09T10:47:32.281Z,1.15
2023-02-09T10:50:29.427Z,1.03
2023-02-09T10:53:03.114Z,0.98
2023-02-09T10:55:41.273Z,0.60
2023-02-09T10:58:21.571Z,0.98
2023-02-09T11:00:54.492Z,0.92
2023-02-09T11:03:30.831Z,1.20
2023-02-09T11:06:03.273Z,1.24
2023-02-09T11:11:31.207Z,0.98
2023-02-09T11:14:00.857Z,0.71
2023-02-09T11:17:06.194Z,1.00
2023-02-09T11:19:59.149Z,0.77
2023-02-09T11:22:46.831Z,0.89
2023-02-09T11:25:24.453Z,0.82
2023-02-09T11:28:10.562Z,0.93
2023-02-09T11:31:02.401Z,0.94
2023-02-09T11:33:49.278Z,0.79
2023-02-09T11:36:48.158Z,0.82
2023-02-09T11:39:30.019Z,0.97
2023-02-09T11:42:17.253Z,0.96
2023-02-09T11:44:53.704Z,0.83
2023-02-09T11:47:27.775Z,0.77
2023-02-09T11:50:06.545Z,0.79
2023-02-09T11:52:49.511Z,0.60
2023-02-09T11:55:27.030Z,0.64
2023-02-09T11:58:04.917Z,0.52
2023-02-09T12:00:53.445Z,0.55
2023-02-09T12:03:27.075Z,0.57
2023-02-09T12:05:57.203Z,0.51
2023-02-09T12:09:00.762Z,0.50
2023-02-09T12:11:50.077Z,0.45
2023-02-09T12:14:37.066Z,0.43
2023-02-09T12:20:04.407Z,0.33
2023-02-09T12:22:57.425Z,0.30
2023-02-09T12:25:40.339Z,0.20
2023-02-09T12:28:17.203Z,0.14
2023-02-09T12:31:00.875Z,0.26
2023-02-09T12:36:31.805Z,0.28
2023-02-09T12:39:24.041Z,0.16
2023-02-09T12:42:08.921Z,0.35
2023-02-09T12:44:56.891Z,0.10
2023-02-09T12:53:49.804Z,-0.31
2023-02-09T12:56:33.664Z,-0.30
2023-02-09T12:59:27.293Z,-0.28
2023-02-09T13:02:26.704Z,-0.14
2023-02-09T13:05:14.397Z,-0.08
2023-02-09T13:07:51.469Z,-0.30
2023-02-09T13:10:29.908Z,0.10
2023-02-09T13:13:07.188Z,0.16
2023-02-09T13:15:54.099Z,0.17
2023-02-09T13:18:34.690Z,0.17
2023-02-09T13:21:18.115Z,0.22
2023-02-09T13:23:59.917Z,0.13
2023-02-09T13:26:39.585Z,0.20
2023-02-09T13:29:20.444Z,-0.02
2023-02-09T13:32:10.481Z,0.11
2023-02-09T13:34:47.264Z,0.07
2023-02-09T13:37:29.992Z,-0.08
2023-02-09T13:40:01.267Z,-0.06
2023-02-09T13:42:38.080Z,-0.07
2023-02-09T13:45:19.978Z,-0.13
2023-02-09T13:47:49.702Z,-0.09
2023-02-09T13:50:20.876Z,-0.16
2023-02-09T13:52:50.864Z,-0.25
2023-02-09T13:55:22.866Z,-0.13
2023-02-09T13:58:00.851Z,-0.11
2023-02-09T14:00:32.913Z,-0.27
2023-02-09T14:03:16.560Z,-0.30
2023-02-09T14:05:58.603Z,-0.19
2023-02-09T14:08:28.792Z,-0.13
2023-02-09T14:11:02.676Z,-0.43
2023-02-09T14:13:37.432Z,-0.19
2023-02-09T14:16:09.364Z,-0.23
2023-02-09T14:18:50.611Z,-0.25
2023-02-09T14:21:31.938Z,-0.27
2023-02-09T14:24:23.620Z,-0.31
2023-02-09T14:26:58.987Z,-0.57
2023-02-09T14:29:32.862Z,-0.31
2023-02-09T14:32:09.050Z,-0.30
2023-02-09T14:34:45.314Z,-0.28
2023-02-09T14:37:31.452Z,-0.39
2023-02-09T14:40:04.185Z,-0.60
2023-02-09T14:42:38.823Z,-0.37
2023-02-09T14:45:32.124Z,-0.43
2023-02-09T14:48:01.457Z,-0.36
2023-02-09T14:50:31.480Z,-0.36
2023-02-09T14:53:09.426Z,-0.36
2023-02-09T14:55:44.713Z,-0.57
2023-02-09T14:58:21.231Z,-0.51
2023-02-09T15:00:53.968Z,-0.54
2023-02-09T15:03:23.549Z,-0.40
2023-02-09T15:06:02.542Z,-0.35
2023-02-09T15:08:36.016Z,-0.31
2023-02-09T15:11:27.962Z,-0.45
2023-02-09T15:14:01.186Z,-0.30
2023-02-09T15:16:32.597Z,-0.38
2023-02-09T15:19:04.552Z,-0.38
2023-02-09T15:21:33.803Z,-0.33
2023-02-09T15:24:02.931Z,-0.47
2023-02-09T15:26:39.022Z,-0.34
2023-02-09T15:29:13.246Z,-0.36
2023-02-09T15:31:49.472Z,-0.38
2023-02-09T15:34:30.236Z,-0.38
2023-02-09T15:36:59.644Z,-0.39
2023-02-09T15:39:31.024Z,-0.54
2023-02-09T15:42:25.620Z,-0.51
2023-02-09T15:45:08.109Z,-0.51
2023-02-09T15:47:52.455Z,-0.46
2023-02-09T15:50:21.706Z,-0.45
2023-02-09T15:52:50.931Z,-0.43
2023-02-09T15:55:28.292Z,-0.51
2023-02-09T15:57:58.219Z,-0.50
2023-02-09T16:00:29.563Z,-0.34
2023-02-09T16:03:02.201Z,-0.78
2023-02-09T16:05:32.087Z,-0.49
2023-02-09T16:08:02.058Z,-0.49
2023-02-09T16:10:32.022Z,-0.48
2023-02-09T16:13:01.211Z,-0.48
2023-02-09T16:15:30.376Z,-0.61
2023-02-09T16:18:01.347Z,-0.52
2023-02-09T16:20:35.955Z,-0.39
2023-02-09T16:23:19.881Z,-0.34
2023-02-09T16:26:01.548Z,-0.38
2023-02-09T16:28:41.056Z,-0.25
2023-02-09T16:31:11.051Z,-0.29
2023-02-09T16:33:43.452Z,-0.34
2023-02-09T16:36:17.538Z,-0.28
2023-02-09T16:38:53.003Z,-0.34
2023-02-09T16:41:35.225Z,-0.36
2023-02-09T16:44:25.993Z,-0.37
2023-02-09T16:46:57.479Z,-0.60
2023-02-09T16:49:35.924Z,-0.39
2023-02-09T16:52:17.825Z,-0.31
2023-02-09T16:54:54.147Z,-0.33
2023-02-09T16:57:24.958Z,-0.56
2023-02-09T16:59:55.427Z,-0.62
2023-02-09T17:02:36.842Z,-0.45
2023-02-09T17:05:19.598Z,-0.61
2023-02-09T17:07:55.224Z,-0.46
2023-02-09T17:10:28.830Z,-0.45
2023-02-09T17:12:58.254Z,-0.43
2023-02-09T17:15:31.669Z,-0.66
2023-02-09T17:18:03.308Z,-0.42
2023-02-09T17:20:44.655Z,-0.34
2023-02-09T17:23:18.208Z,-0.78
2023-02-09T17:25:48.481Z,-0.34
2023-02-09T17:28:23.325Z,-0.41
2023-02-09T17:30:53.586Z,-0.49
2023-02-09T17:33:25.741Z,-0.34
2023-02-09T17:36:25.917Z,-0.34
2023-02-09T17:39:02.530Z,-0.42
2023-02-09T17:41:40.378Z,-0.48
2023-02-09T17:47:05.526Z,-0.48
2023-02-09T17:49:34.826Z,-0.49
2023-02-09T17:52:07.044Z,-0.54
2023-02-09T17:54:36.208Z,-0.77
2023-02-09T17:57:05.393Z,-0.52
2023-02-09T17:59:39.601Z,-0.76
2023-02-09T18:02:15.876Z,-0.58
2023-02-09T18:04:55.682Z,-0.58
2023-02-09T18:07:27.081Z,-0.59
2023-02-09T18:09:56.395Z,-0.61
2023-02-09T18:12:28.080Z,-0.85
2023-02-09T18:14:58.709Z,-0.69
2023-02-09T18:17:28.083Z,-0.72
2023-02-09T18:20:01.408Z,-0.74
2023-02-09T18:22:37.830Z,-0.75
2023-02-09T18:25:13.883Z,-0.87
2023-02-09T18:27:43.202Z,-0.86
2023-02-09T18:30:14.188Z,-0.95
2023-02-09T18:32:48.774Z,-1.00
2023-02-09T18:35:26.079Z,-1.00
2023-02-09T18:37:57.359Z,-1.01
2023-02-09T18:40:26.958Z,-0.97
2023-02-09T18:43:01.638Z,-1.29
2023-02-09T18:45:32.120Z,-0.96
2023-02-09T18:48:01.672Z,-1.07
2023-02-09T18:50:33.835Z,-1.25
2023-02-09T18:53:05.562Z,-1.11
2023-02-09T18:55:36.323Z,-1.09
2023-02-09T18:58:08.924Z,-0.98
2023-02-09T19:00:38.344Z,-1.00
2023-02-09T19:03:07.461Z,-1.05
2023-02-09T19:05:42.629Z,-1.06
2023-02-09T19:08:13.865Z,-0.97
2023-02-09T19:10:44.804Z,-0.97
2023-02-09T19:13:14.043Z,-0.93
2023-02-09T19:15:43.338Z,-1.07
2023-02-09T19:18:22.606Z,-1.11
2023-02-09T19:20:55.140Z,-0.96
2023-02-09T19:26:12.122Z,-1.01
2023-02-09T19:28:41.187Z,-1.08
2023-02-09T19:31:13.282Z,-1.10
2023-02-09T19:33:42.536Z,-1.03
2023-02-09T19:36:15.023Z,-1.15
2023-02-09T19:38:46.795Z,-1.14
2023-02-09T19:41:16.816Z,-1.07
2023-02-09T19:43:45.899Z,-1.01
2023-02-09T19:46:15.518Z,-1.04
2023-02-09T19:48:45.960Z,-1.10
2023-02-09T19:51:20.227Z,-1.24
2023-02-09T19:53:52.841Z,-1.04
2023-02-09T19:56:23.052Z,-1.01
2023-02-09T19:58:57.361Z,-1.06
2023-02-09T20:01:26.543Z,-1.08
2023-02-09T20:03:56.002Z,-1.11
2023-02-09T20:06:25.628Z,-1.02
2023-02-09T20:08:57.045Z,-0.98
2023-02-09T20:11:32.879Z,-1.06
2023-02-09T20:14:02.723Z,-1.21
2023-02-09T20:16:31.851Z,-1.09
2023-02-09T20:19:11.577Z,-1.17
2023-02-09T20:21:42.499Z,-1.17
2023-02-09T20:24:16.238Z,-1.18
2023-02-09T20:26:46.558Z,-1.25
2023-02-09T20:29:16.343Z,-1.26
2023-02-09T20:31:46.515Z,-1.27
2023-02-09T20:34:22.417Z,-1.25
2023-02-09T20:36:51.663Z,-1.21
2023-02-09T20:39:28.101Z,-1.30
2023-02-09T20:42:17.469Z,-1.23
2023-02-09T20:44:59.679Z,-1.38
2023-02-09T20:47:29.395Z,-1.18
2023-02-09T20:50:09.604Z,-1.42
2023-02-09T20:52:39.237Z,-1.20
2023-02-09T20:55:10.607Z,-1.24
2023-02-09T20:57:39.842Z,-1.28
2023-02-09T21:00:11.346Z,-1.35
2023-02-09T21:02:42.162Z,-1.35
2023-02-09T21:05:11.845Z,-1.50
2023-02-09T21:07:41.114Z,-1.30
2023-02-09T21:10:20.257Z,-1.32
2023-02-09T21:12:49.554Z,-1.29
2023-02-09T21:15:18.827Z,-1.46
2023-02-09T21:17:51.078Z,-1.27
2023-02-09T21:20:20.341Z,-1.30
2023-02-09T21:22:50.079Z,-1.33
2023-02-09T21:25:21.805Z,-1.31
2023-02-09T21:27:51.113Z,-1.39
2023-02-09T21:30:25.311Z,-1.33
2023-02-09T21:32:54.690Z,-1.34
2023-02-09T21:35:24.488Z,-1.39
2023-02-09T21:37:59.002Z,-1.49
2023-02-09T21:40:30.402Z,-1.49
2023-02-09T21:42:59.839Z,-1.49
2023-02-09T21:45:28.950Z,-1.38
2023-02-09T21:47:58.232Z,-1.41
2023-02-09T21:50:27.673Z,-1.41
2023-02-09T21:52:58.969Z,-1.39
2023-02-09T21:55:36.276Z,-1.38
2023-02-09T21:58:05.551Z,-1.38
2023-02-09T22:00:35.287Z,-1.41
2023-02-09T22:03:04.512Z,-1.41
2023-02-09T22:05:33.649Z,-1.38
2023-02-09T22:08:02.858Z,-1.54
2023-02-09T22:10:33.967Z,-1.44
2023-02-09T22:13:08.038Z,-1.37
2023-02-09T22:15:41.206Z,-1.47
2023-02-09T22:18:15.685Z,-1.47
2023-02-09T22:20:46.527Z,-1.41
2023-02-09T22:23:16.607Z,-1.36
2023-02-09T22:25:52.801Z,-1.34
2023-02-09T22:28:22.138Z,-1.29
2023-02-09T22:30:51.635Z,-1.32
2023-02-09T22:33:26.308Z,-1.55
2023-02-09T22:35:55.409Z,-1.38
2023-02-09T22:38:24.935Z,-1.47
2023-02-09T22:41:05.171Z,-1.42
2023-02-09T22:43:35.180Z,-1.48
2023-02-09T22:46:04.476Z,-1.44
2023-02-09T22:48:38.789Z,-1.45
2023-02-09T22:51:08.107Z,-1.52
2023-02-09T22:53:37.298Z,-1.44
2023-02-09T22:56:08.781Z,-1.42
2023-02-09T22:58:38.092Z,-1.48
2023-02-09T23:01:08.134Z,-1.49
2023-02-09T23:03:37.745Z,-1.51
2023-02-09T23:06:09.037Z,-1.52
2023-02-09T23:08:38.529Z,-1.47
2023-02-09T23:11:12.156Z,-1.51
2023-02-09T23:13:41.476Z,-1.61
2023-02-09T23:16:13.147Z,-1.53
2023-02-09T23:18:46.698Z,-1.42
2023-02-09T23:21:26.240Z,-1.47
2023-02-09T23:23:56.133Z,-1.51
2023-02-09T23:26:27.432Z,-1.51
2023-02-09T23:28:58.508Z,-1.47
2023-02-09T23:31:28.813Z,-1.51
2023-02-09T23:33:58.315Z,-1.56
2023-02-09T23:36:29.811Z,-1.59
2023-02-09T23:39:00.934Z,-1.59
2023-02-09T23:41:32.640Z,-1.58
2023-02-09T23:44:03.124Z,-1.64
2023-02-09T23:46:32.570Z,-1.62
2023-02-09T23:49:01.706Z,-1.64
2023-02-09T23:51:33.078Z,-1.64
2023-02-09T23:54:04.032Z,-1.63
2023-02-09T23:56:38.465Z,-1.71
2023-02-09T23:59:09.444Z,-1.70
